Buckingham, IL (60917)

1:58 PM CDT on August 30, 2016 (GMT -0500)
Herscher Fire Department | | Change Station

Elev 656 ft 41.05 °N, 88.09 °W | Updated 10 minutes ago

Clear
Clear
80.0 °F
Feels Like 84 °F
N
2.0
Wind Variable Wind from North
Gusts 5.0 mph

Today
High -- | Low -- °F
--% Chance of Precip.
Yesterday
High -- | Low -- °F
Precip. -- in
Pressure 30.12 in
Visibility 10.0 miles
Clouds Clear
Heat Index 84 °F
Dew Point 72 °F
Humidity 77%
Rainfall 0.25 in
Snow Depth Not available.
6:17 AM 7:27 PM
Waning Crescent, 3% visible
METAR KIKK 301835Z AUTO 31003KT 10SM CLR 27/21 A3012 RMK AO2 T02700210
Pressure 30.12 in
Visibility 10.0 miles
Clouds Clear
Heat Index 84 °F
Dew Point 72 °F
Humidity 77%
Rainfall 0.25 in
Snow Depth Not available.
6:17 AM 7:27 PM
Waning Crescent, 3% visible
METAR KIKK 301835Z AUTO 31003KT 10SM CLR 27/21 A3012 RMK AO2 T02700210

10-Day Weather Forecast

Almanac

Astronomy

Aug. 30, 2016 Rise Set
Actual Time
Civil Twilight
Nautical Twilight
Astronomical Twilight
Moon
Length of Visible Light
Length of Day
Tomorrow will be .
, % of the Moon is Illuminated

Today's Extremes

State Highs State Lows

Community

WunderPhotos

Upload Photos

1,935,875 photos uploaded!

WunderBlog® & News

Nearby

Air Quality

  Air Quality AQ Index Pollutant
Not available.

Snow Depth

Station Depth Elevation

Earthquake Activity

City Distance Mag. Time & Date
Minimum magnitude displayed is 2.5.

Coastal Water Temperatures

Place Temperature

Stations

Nearby Weather Stations

Station Location Temp. Windchill Dew Point Humidity Wind Precip. Elev Updated Type
                   

Watches & Warnings

There are currently no watches in effect.